Time;durP1;ratioP1;P1;durP2;ratioP2;P2;SDS_P1;SDS_P2;PMS_P1;PMS_P2;Temp;Humidity;BMP_temperature;BMP_pressure;BME280_temperature;BME280_humidity;BME280_pressure;Samples;Min_cycle;Max_cycle;Signal;HPM_P1;HPM_P2
2022/01/26 00:00:07;;;;;;;43.45;27.50;;;5.90;81.90;;;;;;10748254;33;20352;-72
2022/01/26 00:06:19;;;;;;;41.90;24.45;;;6.20;81.40;;;;;;10751179;33;20017;-72
2022/01/26 00:12:21;;;;;;;39.30;19.45;;;6.10;81.60;;;;;;10751575;33;20036;-72
2022/01/26 00:18:24;;;;;;;40.95;24.67;;;6.20;82.00;;;;;;10746952;33;20334;-72
2022/01/26 00:43:25;;;;;;;42.72;22.62;;;6.20;82.10;;;;;;10415690;32;12022920;-72
2022/01/26 00:49:27;;;;;;;33.20;19.67;;;6.00;82.00;;;;;;10832948;32;20027;-72
2022/01/26 00:55:30;;;;;;;51.88;28.40;;;5.90;82.40;;;;;;10832979;32;20052;-72
2022/01/26 01:01:32;;;;;;;46.20;27.95;;;6.00;82.40;;;;;;10831021;32;20019;-72
2022/01/26 01:07:37;;;;;;;39.40;23.38;;;6.10;82.60;;;;;;10825238;32;20373;-72
2022/01/26 01:13:41;;;;;;;36.55;21.90;;;6.20;82.60;;;;;;10755869;33;20432;-72
2022/01/26 01:20:00;;;;;;;32.38;19.05;;;6.20;82.40;;;;;;10818466;32;20051;-72
2022/01/26 01:26:23;;;;;;;31.70;20.23;;;6.10;82.50;;;;;;10755504;33;20016;-72
2022/01/26 01:32:37;;;;;;;36.60;22.13;;;6.10;82.70;;;;;;10755371;33;20055;-73
2022/01/26 01:38:42;;;;;;;45.97;27.20;;;6.20;82.80;;;;;;10751445;33;20467;-72
2022/01/26 01:44:45;;;;;;;35.85;23.25;;;6.10;82.80;;;;;;10757603;27;20037;-72
2022/01/26 01:50:50;;;;;;;45.10;24.80;;;6.20;83.00;;;;;;10754842;33;20063;-72
2022/01/26 01:56:57;;;;;;;34.50;20.27;;;6.20;82.60;;;;;;10804636;32;20043;-72
2022/01/26 02:03:00;;;;;;;46.75;29.15;;;6.20;82.80;;;;;;10754498;33;20020;-72
2022/01/26 02:09:04;;;;;;;37.45;25.10;;;6.20;82.80;;;;;;10754268;33;20423;-73
2022/01/26 02:15:13;;;;;;;44.28;22.40;;;6.20;83.00;;;;;;10754192;33;20043;-73
2022/01/26 03:05:33;;;;;;;43.72;24.25;;;6.40;82.90;;;;;;10752796;33;20017;-72
2022/01/26 03:11:38;;;;;;;44.67;26.23;;;6.30;82.80;;;;;;10752197;33;20043;-73
2022/01/26 03:37:01;;;;;;;48.92;29.23;;;6.60;82.90;;;;;;10752015;33;20043;-72
2022/01/26 03:43:05;;;;;;;54.25;33.83;;;6.50;83.00;;;;;;10751479;33;20048;-72
2022/01/26 03:49:09;;;;;;;60.88;35.50;;;6.60;82.80;;;;;;10751485;33;20020;-72
2022/01/26 03:55:11;;;;;;;62.03;33.80;;;6.70;83.00;;;;;;10751357;33;20064;-72
2022/01/26 04:01:13;;;;;;;64.65;35.58;;;6.90;82.80;;;;;;10747198;33;20021;-72
2022/01/26 04:07:15;;;;;;;67.10;37.42;;;7.00;82.90;;;;;;10747164;33;20055;-72
2022/01/26 04:13:17;;;;;;;53.42;35.13;;;7.10;82.80;;;;;;10750845;33;20055;-72
2022/01/26 04:19:20;;;;;;;47.35;31.98;;;7.10;82.40;;;;;;10803330;32;20390;-72
2022/01/26 04:25:25;;;;;;;51.63;34.05;;;7.00;82.50;;;;;;10756443;33;20020;-72
2022/01/26 04:31:27;;;;;;;47.13;28.15;;;7.00;82.40;;;;;;10795084;32;20036;-72
2022/01/26 04:38:11;;;;;;;43.22;27.35;;;7.00;82.30;;;;;;10756956;33;20012;-71
2022/01/26 04:43:56;;;;;;;51.00;29.00;;;7.00;82.20;;;;;;10756784;33;20017;-72
2022/01/26 04:49:58;;;;;;;43.08;26.35;;;7.20;82.20;;;;;;10756876;33;20016;-72
2022/01/26 04:56:00;;;;;;;62.97;38.22;;;7.20;82.00;;;;;;10806638;32;20048;-72
2022/01/26 05:02:03;;;;;;;44.25;28.62;;;7.30;82.20;;;;;;10756235;33;20047;-72
2022/01/26 05:08:05;;;;;;;36.38;23.95;;;7.30;81.90;;;;;;10756106;33;20028;-72
2022/01/26 05:14:08;;;;;;;41.15;25.67;;;7.30;81.90;;;;;;10755678;33;20033;-72
2022/01/26 05:20:11;;;;;;;41.15;23.52;;;7.50;81.70;;;;;;10806066;32;20055;-72
2022/01/26 05:26:13;;;;;;;34.45;23.25;;;7.50;81.30;;;;;;10805949;32;20025;-72
2022/01/26 05:32:15;;;;;;;39.33;27.27;;;7.60;81.30;;;;;;10754719;33;20322;-72
2022/01/26 05:38:17;;;;;;;47.08;30.73;;;7.70;81.20;;;;;;10755174;33;20020;-72
2022/01/26 05:44:19;;;;;;;58.42;35.40;;;7.80;81.60;;;;;;10755093;33;20017;-72
2022/01/26 05:50:22;;;;;;;43.42;28.08;;;7.90;81.10;;;;;;10754794;33;20052;-72
2022/01/26 05:56:24;;;;;;;41.28;25.23;;;8.00;81.20;;;;;;10754606;33;20021;-72
2022/01/26 06:02:26;;;;;;;42.80;24.90;;;8.00;81.30;;;;;;10754585;33;20029;-72
2022/01/26 06:08:28;;;;;;;50.97;33.45;;;8.20;81.10;;;;;;10754398;33;20047;-72
2022/01/26 06:14:32;;;;;;;37.75;24.10;;;8.20;80.70;;;;;;10754194;33;20039;-72
2022/01/26 06:20:34;;;;;;;36.40;26.98;;;8.20;80.50;;;;;;10801953;32;20036;-72
2022/01/26 06:26:37;;;;;;;42.17;27.73;;;8.20;80.30;;;;;;10752520;33;20051;-72
2022/01/26 06:32:39;;;;;;;32.90;23.98;;;7.90;80.10;;;;;;10750147;33;20055;-71
2022/01/26 06:38:43;;;;;;;37.30;23.30;;;7.50;81.00;;;;;;10753185;33;20379;-72
2022/01/26 06:50:52;;;;;;;42.62;24.95;;;7.00;81.30;;;;;;10753112;33;20086;-72
2022/01/26 06:56:54;;;;;;;43.35;24.98;;;7.10;81.80;;;;;;10749912;33;20028;-71
2022/01/26 07:02:56;;;;;;;34.13;24.45;;;7.20;81.10;;;;;;10751929;33;20447;-71
2022/01/26 07:09:01;;;;;;;37.65;21.40;;;7.20;81.50;;;;;;10729275;33;20353;-71
2022/01/26 07:21:28;;;;;;;38.88;21.40;;;6.80;81.80;;;;;;10734113;33;20401;-71
2022/01/26 07:27:30;;;;;;;53.45;30.17;;;6.80;81.90;;;;;;10752077;33;20047;-71
2022/01/26 07:33:55;;;;;;;44.72;24.98;;;7.00;81.90;;;;;;10751024;33;20095;-71
2022/01/26 07:40:16;;;;;;;58.80;35.10;;;7.30;82.00;;;;;;10750397;33;20021;-72
2022/01/26 07:46:18;;;;;;;65.15;39.20;;;7.70;81.80;;;;;;10749395;33;20029;-72
2022/01/26 07:52:21;;;;;;;53.85;34.42;;;8.10;81.20;;;;;;10747355;33;20028;-72
2022/01/26 07:58:24;;;;;;;51.40;29.12;;;8.20;80.90;;;;;;10749306;33;20051;-72
2022/01/26 08:04:28;;;;;;;58.83;35.13;;;8.50;80.40;;;;;;10798469;32;20350;-72
2022/01/26 08:10:30;;;;;;;59.72;35.78;;;8.50;80.20;;;;;;10750671;33;20021;-72
2022/01/26 08:16:32;;;;;;;50.85;33.60;;;8.60;79.80;;;;;;10747198;33;20412;-72
2022/01/26 08:22:35;;;;;;;75.62;42.28;;;8.60;79.70;;;;;;10746756;33;20048;-72
2022/01/26 08:28:45;;;;;;;90.07;54.95;;;8.30;79.80;;;;;;10750730;33;20075;-72
2022/01/26 08:34:47;;;;;;;62.20;32.67;;;8.60;80.00;;;;;;10808859;32;20055;-72
2022/01/26 08:40:49;;;;;;;48.42;28.23;;;8.80;79.50;;;;;;10750548;32;20055;-72
2022/01/26 08:46:52;;;;;;;45.03;27.98;;;8.80;79.20;;;;;;10746677;33;20360;-72
2022/01/26 08:52:55;;;;;;;70.28;34.55;;;8.40;79.40;;;;;;10747174;33;20029;-72
2022/01/26 08:58:57;;;;;;;56.70;34.22;;;8.20;80.60;;;;;;10748728;33;20398;-72
2022/01/26 09:05:00;;;;;;;51.08;27.70;;;8.50;80.30;;;;;;10743919;33;20106;-71
2022/01/26 09:11:07;;;;;;;50.75;27.67;;;8.70;79.50;;;;;;10804044;32;20055;-71
2022/01/26 09:17:11;;;;;;;46.30;30.75;;;8.10;79.80;;;;;;10802637;32;20032;-72
2022/01/26 09:23:13;;;;;;;70.20;41.37;;;8.10;80.30;;;;;;10751779;33;20435;-72
2022/01/26 09:29:15;;;;;;;58.35;37.22;;;8.00;80.80;;;;;;10755314;33;20020;-71
2022/01/26 09:35:18;;;;;;;53.20;32.72;;;8.20;81.10;;;;;;10816757;32;20047;-72
2022/01/26 09:41:22;;;;;;;59.85;36.28;;;8.40;81.00;;;;;;10759883;27;20029;-71
2022/01/26 09:47:25;;;;;;;56.60;37.15;;;8.60;80.50;;;;;;10754762;33;20044;-72
2022/01/26 09:53:29;;;;;;;55.92;37.05;;;8.70;80.40;;;;;;10754744;33;20340;-72
2022/01/26 09:59:40;;;;;;;60.33;34.72;;;8.80;80.10;;;;;;10754349;33;20036;-72
2022/01/26 10:05:45;;;;;;;43.95;26.42;;;8.90;80.00;;;;;;10754305;33;20048;-72
2022/01/26 10:18:15;;;;;;;43.10;24.67;;;8.70;79.90;;;;;;10750730;33;20028;-72
2022/01/26 10:24:20;;;;;;;46.92;30.58;;;8.70;80.30;;;;;;10753940;33;20044;-71
2022/01/26 10:30:29;;;;;;;36.15;22.73;;;8.60;80.50;;;;;;10753863;33;20056;-72
2022/01/26 10:36:40;;;;;;;37.83;23.52;;;8.70;80.60;;;;;;10749433;33;20440;-71
2022/01/26 10:43:05;;;;;;;44.22;25.17;;;8.40;80.60;;;;;;10753194;33;20052;-72
2022/01/26 10:49:54;;;;;;;37.72;23.38;;;8.40;81.40;;;;;;10753235;33;20419;-72
2022/01/26 10:55:55;;;;;;;42.15;26.75;;;8.30;81.10;;;;;;10750283;32;20356;-72
2022/01/26 11:02:00;;;;;;;42.72;25.05;;;8.20;81.50;;;;;;10750254;33;20028;-72
2022/01/26 11:08:04;;;;;;;33.67;20.73;;;8.20;81.30;;;;;;10748491;33;20047;-72
2022/01/26 11:14:22;;;;;;;38.75;21.42;;;8.20;81.50;;;;;;10752390;33;20025;-72
2022/01/26 11:20:34;;;;;;;43.80;26.95;;;8.20;81.60;;;;;;10752093;33;20025;-72
2022/01/26 11:26:38;;;;;;;51.83;29.92;;;8.20;81.80;;;;;;10751501;33;20043;-71
2022/01/26 11:32:50;;;;;;;48.60;31.25;;;8.30;81.30;;;;;;10751350;33;20021;-71
2022/01/26 11:45:16;;;;;;;62.13;36.53;;;8.40;82.00;;;;;;10747406;33;20051;-71
2022/01/26 11:51:18;;;;;;;44.20;27.67;;;8.70;82.20;;;;;;10801200;32;20397;-70
2022/01/26 11:57:47;;;;;;;44.13;28.23;;;8.80;81.40;;;;;;10743153;33;20337;-70
2022/01/26 12:04:11;;;;;;;47.62;29.87;;;8.80;81.60;;;;;;10714636;33;20060;-70
2022/01/26 12:10:26;;;;;;;39.80;24.87;;;8.90;81.40;;;;;;10710429;33;20047;-71
2022/01/26 12:16:34;;;;;;;36.78;22.98;;;8.70;81.60;;;;;;10713826;33;20029;-70
2022/01/26 12:41:36;;;;;;;36.05;23.40;;;9.00;81.70;;;;;;10713791;33;20056;-70
2022/01/26 12:47:38;;;;;;;46.13;27.00;;;8.90;81.30;;;;;;10720452;33;20021;-70
2022/01/26 12:53:42;;;;;;;43.22;25.05;;;8.80;81.40;;;;;;10720047;33;20056;-70
2022/01/26 12:59:45;;;;;;;35.22;24.48;;;8.70;80.80;;;;;;10769412;32;20017;-70
2022/01/26 13:05:47;;;;;;;38.90;23.27;;;8.70;80.80;;;;;;10719897;33;20025;-70
2022/01/26 13:11:50;;;;;;;34.80;23.67;;;9.00;81.50;;;;;;10719730;33;20021;-70
2022/01/26 13:18:02;;;;;;;39.22;24.58;;;9.00;80.50;;;;;;10719560;33;20033;-70
2022/01/26 13:24:15;;;;;;;40.12;26.50;;;9.20;81.60;;;;;;10719435;33;20041;-70
2022/01/26 13:30:50;;;;;;;56.55;33.97;;;9.30;81.10;;;;;;10769407;32;20033;-70
2022/01/26 13:49:44;;;;;;;34.05;23.10;;;9.70;80.70;;;;;;10718705;33;20025;-70
2022/01/26 13:56:01;;;;;;;35.97;22.20;;;9.30;80.50;;;;;;10718228;33;20033;-69
2022/01/26 14:02:04;;;;;;;55.17;38.42;;;9.10;81.00;;;;;;10729485;33;20028;-72
2022/01/26 14:08:06;;;;;;;52.08;27.98;;;8.80;80.10;;;;;;10751768;33;20025;-70
2022/01/26 14:14:09;;;;;;;50.45;30.12;;;8.60;80.20;;;;;;10754205;33;20028;-71
2022/01/26 14:20:28;;;;;;;49.08;28.02;;;8.50;79.70;;;;;;10754070;33;20290;-72
2022/01/26 14:26:32;;;;;;;32.97;22.42;;;8.60;80.30;;;;;;10754150;32;20057;-74
2022/01/26 14:33:00;;;;;;;29.63;19.70;;;8.70;80.80;;;;;;10802097;32;20321;-74
2022/01/26 16:07:24;;;;;;;44.10;26.90;;;8.70;81.60;;;;;;10751092;33;20043;-72
2022/01/26 18:52:29;;;;;;;57.42;37.83;;;7.20;80.20;;;;;;10865305;32;20456;-72
2022/01/26 18:58:31;;;;;;;52.90;38.67;;;7.30;80.40;;;;;;10865004;32;20050;-72
2022/01/26 19:04:41;;;;;;;57.47;38.53;;;7.30;79.90;;;;;;10864582;32;20079;-72
2022/01/26 19:10:43;;;;;;;49.25;35.58;;;7.40;79.80;;;;;;10863036;32;20510;-71
2022/01/26 19:16:52;;;;;;;55.38;36.58;;;7.50;79.30;;;;;;10863979;32;20036;-72
2022/01/26 19:29:11;;;;;;;57.30;38.72;;;7.30;79.50;;;;;;10752195;33;20009;-71
2022/01/26 19:55:10;;;;;;;57.40;37.15;;;7.20;78.90;;;;;;10750809;32;20059;-72
2022/01/26 20:01:13;;;;;;;64.87;44.45;;;7.20;78.70;;;;;;10751460;33;20401;-71
2022/01/26 20:07:25;;;;;;;63.80;37.58;;;7.20;78.60;;;;;;10751303;33;20029;-72
2022/01/26 20:13:31;;;;;;;62.10;42.03;;;7.20;78.60;;;;;;10747066;33;20059;-71
2022/01/26 20:19:37;;;;;;;57.08;38.28;;;6.70;78.60;;;;;;10749568;33;20482;-71
2022/01/26 20:25:39;;;;;;;57.80;38.60;;;6.70;79.20;;;;;;10750958;33;20048;-71
2022/01/26 20:31:41;;;;;;;51.35;34.25;;;6.60;79.60;;;;;;10750602;33;20043;-71
2022/01/26 20:37:45;;;;;;;62.62;37.45;;;6.40;79.10;;;;;;10750558;33;20060;-71
2022/01/26 20:43:47;;;;;;;57.88;36.38;;;6.20;80.00;;;;;;10750448;33;20029;-71
2022/01/26 20:49:49;;;;;;;52.62;35.42;;;6.60;79.50;;;;;;10750350;33;20377;-71
2022/01/26 20:56:23;;;;;;;51.63;35.35;;;6.70;78.90;;;;;;10800529;32;20017;-71
2022/01/26 21:02:26;;;;;;;46.03;31.15;;;6.70;78.50;;;;;;10753656;33;20020;-71
2022/01/26 21:08:28;;;;;;;62.90;41.20;;;6.70;78.30;;;;;;10756198;33;20021;-71
2022/01/26 21:14:31;;;;;;;50.40;35.72;;;6.60;78.10;;;;;;10755942;33;20059;-71
2022/01/26 21:20:33;;;;;;;54.15;38.08;;;6.50;78.30;;;;;;10806272;32;20051;-71
2022/01/26 21:26:36;;;;;;;53.87;34.42;;;6.50;78.10;;;;;;10753277;33;20059;-71
2022/01/26 21:32:38;;;;;;;48.90;33.35;;;6.00;78.60;;;;;;10755637;33;20043;-73
2022/01/26 21:38:48;;;;;;;49.80;33.70;;;5.60;79.60;;;;;;10755345;33;20021;-73
2022/01/26 21:44:50;;;;;;;50.55;34.13;;;5.40;80.60;;;;;;10755296;33;20036;-73
2022/01/26 21:50:53;;;;;;;60.42;41.17;;;5.80;80.10;;;;;;10755089;33;20017;-72
2022/01/26 21:57:05;;;;;;;62.88;46.00;;;5.70;79.60;;;;;;10754933;33;20054;-73
2022/01/26 22:03:07;;;;;;;58.87;36.28;;;5.90;79.90;;;;;;10754744;33;20025;-72
2022/01/26 22:09:38;;;;;;;49.10;35.80;;;6.10;79.60;;;;;;10754597;33;20051;-72
2022/01/26 22:15:40;;;;;;;74.12;46.97;;;6.20;79.30;;;;;;10753747;33;20033;-73
2022/01/26 22:22:13;;;;;;;58.83;39.05;;;6.20;79.40;;;;;;10754305;33;20392;-72
2022/01/26 22:28:17;;;;;;;52.90;35.28;;;6.20;79.30;;;;;;10753991;33;20036;-72
2022/01/26 22:34:20;;;;;;;59.95;37.75;;;6.10;79.20;;;;;;10753772;32;20032;-72
2022/01/26 22:40:24;;;;;;;64.43;44.70;;;6.00;78.80;;;;;;10753744;33;20029;-72
2022/01/26 22:46:26;;;;;;;61.25;42.10;;;5.90;79.00;;;;;;10802670;32;20314;-72
2022/01/26 22:52:28;;;;;;;55.22;39.47;;;6.10;79.60;;;;;;10753244;33;20337;-72
2022/01/26 22:58:30;;;;;;;61.58;40.15;;;6.00;79.10;;;;;;10753144;33;20039;-72
2022/01/26 23:04:36;;;;;;;61.17;38.63;;;5.80;78.80;;;;;;10753113;33;20420;-72
2022/01/26 23:10:38;;;;;;;63.13;44.13;;;5.70;79.10;;;;;;10802836;32;20046;-72
2022/01/26 23:16:40;;;;;;;74.07;53.60;;;5.80;79.00;;;;;;10752768;33;20333;-72
2022/01/26 23:22:43;;;;;;;72.53;46.17;;;5.80;78.70;;;;;;10802133;32;20024;-72
2022/01/26 23:29:02;;;;;;;55.00;37.53;;;5.90;79.10;;;;;;10752154;33;20333;-72
